Fairfield, North Carolina
Current Conditions -  °F | °C
As of 6:56 PM on Friday 28 Nov 2014 (Local Time) from K2DP Reporting Station
Few Clouds Few Clouds  
Wind Chill: 31°   Ceiling: Unl
Heat Index: 31°   Visibility: 10mi
Dew Point: 30°   Wind: 1mph
Humidity: 96%   Direction: 260°W
Pressure: 30.33"   Gusts: NA
Location:  35.54°N, 76.22°W
Report Text: K2DP 282356Z AUTO 26001KT 10SM FEW200 00/M01 A3033 RMK AO2 SLPNO T10051011 10069 21013 52010
Loading
Personal Weather Stations






























Interactive Weather Map New forecast layout! Learn more

10-Day Weather Forecast

Advertisements
Track Severe Weather on mobile